sensor_id;sensor_type;location;lat;lon;timestamp;P1;durP1;ratioP1;P2;durP2;ratioP2
61739;SDS011;47645;45.288;12.038;2023-02-28T00:01:03;7.6;;;5.1;;
61739;SDS011;47645;45.288;12.038;2023-02-28T00:11:04;9.6;;;5.7;;
61739;SDS011;47645;45.288;12.038;2023-02-28T00:21:04;7.1;;;4.7;;
61739;SDS011;47645;45.288;12.038;2023-02-28T00:31:04;8.6;;;5.2;;
61739;SDS011;47645;45.288;12.038;2023-02-28T00:41:05;9.5;;;5.4;;
61739;SDS011;47645;45.288;12.038;2023-02-28T00:51:04;9.5;;;5.3;;
61739;SDS011;47645;45.288;12.038;2023-02-28T01:01:05;7.8;;;4.5;;
61739;SDS011;47645;45.288;12.038;2023-02-28T01:11:09;7.8;;;4.8;;
61739;SDS011;47645;45.288;12.038;2023-02-28T01:21:06;9.5;;;5.3;;
61739;SDS011;47645;45.288;12.038;2023-02-28T01:31:05;8.8;;;4.8;;
61739;SDS011;47645;45.288;12.038;2023-02-28T01:41:06;10.0;;;4.6;;
61739;SDS011;47645;45.288;12.038;2023-02-28T01:51:08;9.7;;;5.1;;
61739;SDS011;47645;45.288;12.038;2023-02-28T02:01:06;8.3;;;5.3;;
61739;SDS011;47645;45.288;12.038;2023-02-28T02:11:07;9.5;;;5.4;;
61739;SDS011;47645;45.288;12.038;2023-02-28T02:21:44;11.4;;;5.9;;
61739;SDS011;47645;45.288;12.038;2023-02-28T02:31:13;9.1;;;5.5;;
61739;SDS011;47645;45.288;12.038;2023-02-28T02:41:08;11.0;;;6.1;;
61739;SDS011;47645;45.288;12.038;2023-02-28T02:51:13;10.7;;;6.0;;
61739;SDS011;47645;45.288;12.038;2023-02-28T03:01:10;10.8;;;6.5;;
61739;SDS011;47645;45.288;12.038;2023-02-28T03:11:13;9.0;;;5.6;;
61739;SDS011;47645;45.288;12.038;2023-02-28T03:21:11;8.6;;;5.5;;
61739;SDS011;47645;45.288;12.038;2023-02-28T03:31:10;8.4;;;6.1;;
61739;SDS011;47645;45.288;12.038;2023-02-28T03:41:10;9.8;;;6.2;;
61739;SDS011;47645;45.288;12.038;2023-02-28T03:51:10;8.4;;;5.6;;
61739;SDS011;47645;45.288;12.038;2023-02-28T04:01:12;9.1;;;5.1;;
61739;SDS011;47645;45.288;12.038;2023-02-28T04:11:14;9.3;;;6.3;;
61739;SDS011;47645;45.288;12.038;2023-02-28T04:21:11;10.9;;;6.6;;
61739;SDS011;47645;45.288;12.038;2023-02-28T04:31:11;11.8;;;6.1;;
61739;SDS011;47645;45.288;12.038;2023-02-28T04:41:11;10.3;;;6.3;;
61739;SDS011;47645;45.288;12.038;2023-02-28T04:51:12;10.1;;;6.3;;
61739;SDS011;47645;45.288;12.038;2023-02-28T05:01:17;9.5;;;5.8;;
61739;SDS011;47645;45.288;12.038;2023-02-28T05:11:14;11.3;;;6.2;;
61739;SDS011;47645;45.288;12.038;2023-02-28T05:21:22;10.0;;;5.9;;
61739;SDS011;47645;45.288;12.038;2023-02-28T05:31:13;9.9;;;5.8;;
61739;SDS011;47645;45.288;12.038;2023-02-28T05:41:13;9.9;;;6.0;;
61739;SDS011;47645;45.288;12.038;2023-02-28T05:51:13;12.2;;;6.1;;
61739;SDS011;47645;45.288;12.038;2023-02-28T06:01:22;10.5;;;6.1;;
61739;SDS011;47645;45.288;12.038;2023-02-28T06:11:14;14.8;;;7.7;;
61739;SDS011;47645;45.288;12.038;2023-02-28T06:21:14;22.3;;;13.0;;
61739;SDS011;47645;45.288;12.038;2023-02-28T06:31:15;10.4;;;6.5;;
61739;SDS011;47645;45.288;12.038;2023-02-28T06:41:15;12.9;;;6.6;;
61739;SDS011;47645;45.288;12.038;2023-02-28T06:51:16;12.2;;;6.2;;
61739;SDS011;47645;45.288;12.038;2023-02-28T07:01:15;14.0;;;6.6;;
61739;SDS011;47645;45.288;12.038;2023-02-28T07:11:15;11.0;;;7.2;;
61739;SDS011;47645;45.288;12.038;2023-02-28T07:21:16;13.2;;;8.4;;
61739;SDS011;47645;45.288;12.038;2023-02-28T07:31:16;13.4;;;7.4;;
61739;SDS011;47645;45.288;12.038;2023-02-28T07:41:17;13.2;;;6.3;;
61739;SDS011;47645;45.288;12.038;2023-02-28T07:51:16;10.4;;;6.2;;
61739;SDS011;47645;45.288;12.038;2023-02-28T08:01:19;8.6;;;5.2;;
61739;SDS011;47645;45.288;12.038;2023-02-28T08:11:17;10.7;;;5.7;;
61739;SDS011;47645;45.288;12.038;2023-02-28T08:21:18;11.0;;;6.9;;
61739;SDS011;47645;45.288;12.038;2023-02-28T08:31:18;9.3;;;5.4;;
61739;SDS011;47645;45.288;12.038;2023-02-28T08:41:18;8.1;;;5.4;;
61739;SDS011;47645;45.288;12.038;2023-02-28T08:51:22;9.6;;;5.7;;
61739;SDS011;47645;45.288;12.038;2023-02-28T09:01:19;9.0;;;5.1;;
61739;SDS011;47645;45.288;12.038;2023-02-28T09:11:19;10.6;;;5.6;;
61739;SDS011;47645;45.288;12.038;2023-02-28T09:21:20;10.5;;;5.7;;
61739;SDS011;47645;45.288;12.038;2023-02-28T09:31:21;11.5;;;5.9;;
61739;SDS011;47645;45.288;12.038;2023-02-28T09:41:21;10.8;;;6.3;;
61739;SDS011;47645;45.288;12.038;2023-02-28T09:51:28;8.3;;;6.0;;
61739;SDS011;47645;45.288;12.038;2023-02-28T10:01:21;9.9;;;6.3;;
61739;SDS011;47645;45.288;12.038;2023-02-28T10:11:23;8.6;;;5.6;;
61739;SDS011;47645;45.288;12.038;2023-02-28T10:21:23;10.4;;;7.0;;
61739;SDS011;47645;45.288;12.038;2023-02-28T10:31:22;9.6;;;5.8;;
61739;SDS011;47645;45.288;12.038;2023-02-28T10:41:27;8.2;;;5.3;;
61739;SDS011;47645;45.288;12.038;2023-02-28T10:51:23;9.6;;;6.3;;
61739;SDS011;47645;45.288;12.038;2023-02-28T11:01:25;8.8;;;5.1;;
61739;SDS011;47645;45.288;12.038;2023-02-28T11:11:25;10.3;;;5.0;;
61739;SDS011;47645;45.288;12.038;2023-02-28T11:21:25;11.2;;;3.8;;
61739;SDS011;47645;45.288;12.038;2023-02-28T11:31:27;9.5;;;4.0;;
61739;SDS011;47645;45.288;12.038;2023-02-28T11:41:30;8.0;;;3.3;;
61739;SDS011;47645;45.288;12.038;2023-02-28T11:51:27;12.1;;;3.8;;
61739;SDS011;47645;45.288;12.038;2023-02-28T12:01:30;5.9;;;3.4;;
61739;SDS011;47645;45.288;12.038;2023-02-28T12:11:30;8.5;;;3.1;;
61739;SDS011;47645;45.288;12.038;2023-02-28T12:21:31;5.2;;;2.7;;
61739;SDS011;47645;45.288;12.038;2023-02-28T12:31:29;7.5;;;3.4;;
61739;SDS011;47645;45.288;12.038;2023-02-28T12:41:30;4.4;;;2.4;;
61739;SDS011;47645;45.288;12.038;2023-02-28T12:51:29;4.0;;;2.5;;
61739;SDS011;47645;45.288;12.038;2023-02-28T13:11:32;6.6;;;2.9;;
61739;SDS011;47645;45.288;12.038;2023-02-28T13:21:32;5.8;;;2.9;;
61739;SDS011;47645;45.288;12.038;2023-02-28T13:41:43;5.0;;;2.8;;
61739;SDS011;47645;45.288;12.038;2023-02-28T13:51:38;7.7;;;3.6;;
61739;SDS011;47645;45.288;12.038;2023-02-28T14:01:38;7.0;;;3.5;;
61739;SDS011;47645;45.288;12.038;2023-02-28T14:11:36;5.4;;;3.1;;
61739;SDS011;47645;45.288;12.038;2023-02-28T14:21:38;5.9;;;3.4;;
61739;SDS011;47645;45.288;12.038;2023-02-28T14:31:37;5.7;;;3.0;;
61739;SDS011;47645;45.288;12.038;2023-02-28T14:41:39;5.7;;;3.2;;
61739;SDS011;47645;45.288;12.038;2023-02-28T14:51:38;5.7;;;3.0;;
61739;SDS011;47645;45.288;12.038;2023-02-28T15:01:39;6.8;;;3.4;;
61739;SDS011;47645;45.288;12.038;2023-02-28T15:11:40;8.0;;;3.3;;
61739;SDS011;47645;45.288;12.038;2023-02-28T15:21:41;10.4;;;5.0;;
61739;SDS011;47645;45.288;12.038;2023-02-28T15:31:43;9.4;;;4.3;;
61739;SDS011;47645;45.288;12.038;2023-02-28T15:41:41;11.8;;;5.3;;
61739;SDS011;47645;45.288;12.038;2023-02-28T15:51:41;11.5;;;6.1;;
61739;SDS011;47645;45.288;12.038;2023-02-28T16:01:42;8.4;;;4.4;;
61739;SDS011;47645;45.288;12.038;2023-02-28T16:11:43;10.2;;;5.7;;
61739;SDS011;47645;45.288;12.038;2023-02-28T16:21:43;14.7;;;6.6;;
61739;SDS011;47645;45.288;12.038;2023-02-28T16:31:43;15.2;;;6.8;;
61739;SDS011;47645;45.288;12.038;2023-02-28T16:41:44;11.6;;;6.0;;
61739;SDS011;47645;45.288;12.038;2023-02-28T16:51:44;11.3;;;6.3;;
61739;SDS011;47645;45.288;12.038;2023-02-28T17:01:45;17.6;;;6.9;;
61739;SDS011;47645;45.288;12.038;2023-02-28T17:11:47;17.0;;;7.3;;
61739;SDS011;47645;45.288;12.038;2023-02-28T17:21:46;13.6;;;6.4;;
61739;SDS011;47645;45.288;12.038;2023-02-28T17:31:47;13.7;;;7.2;;
61739;SDS011;47645;45.288;12.038;2023-02-28T17:41:47;14.4;;;8.3;;
61739;SDS011;47645;45.288;12.038;2023-02-28T17:51:48;11.3;;;6.3;;
61739;SDS011;47645;45.288;12.038;2023-02-28T18:01:48;15.6;;;8.1;;
61739;SDS011;47645;45.288;12.038;2023-02-28T18:11:49;16.2;;;7.9;;
61739;SDS011;47645;45.288;12.038;2023-02-28T18:21:51;15.2;;;7.5;;
61739;SDS011;47645;45.288;12.038;2023-02-28T18:31:50;15.8;;;7.4;;
61739;SDS011;47645;45.288;12.038;2023-02-28T18:41:49;14.4;;;7.3;;
61739;SDS011;47645;45.288;12.038;2023-02-28T18:51:50;11.6;;;7.5;;
61739;SDS011;47645;45.288;12.038;2023-02-28T19:01:50;14.8;;;7.4;;
61739;SDS011;47645;45.288;12.038;2023-02-28T19:11:51;15.3;;;8.3;;
61739;SDS011;47645;45.288;12.038;2023-02-28T19:21:53;23.8;;;11.2;;
61739;SDS011;47645;45.288;12.038;2023-02-28T19:31:53;16.7;;;10.3;;
61739;SDS011;47645;45.288;12.038;2023-02-28T19:41:53;15.5;;;9.2;;
61739;SDS011;47645;45.288;12.038;2023-02-28T19:51:52;16.4;;;9.9;;
61739;SDS011;47645;45.288;12.038;2023-02-28T20:01:55;18.7;;;11.2;;
61739;SDS011;47645;45.288;12.038;2023-02-28T20:11:54;19.2;;;10.9;;
61739;SDS011;47645;45.288;12.038;2023-02-28T20:21:53;17.4;;;10.7;;
61739;SDS011;47645;45.288;12.038;2023-02-28T20:31:53;16.4;;;10.9;;
61739;SDS011;47645;45.288;12.038;2023-02-28T20:41:53;26.0;;;13.0;;
61739;SDS011;47645;45.288;12.038;2023-02-28T20:51:54;15.8;;;10.3;;
61739;SDS011;47645;45.288;12.038;2023-02-28T21:01:55;17.7;;;10.4;;
61739;SDS011;47645;45.288;12.038;2023-02-28T21:11:54;18.9;;;10.8;;
61739;SDS011;47645;45.288;12.038;2023-02-28T21:21:55;18.0;;;10.6;;
61739;SDS011;47645;45.288;12.038;2023-02-28T21:31:55;17.6;;;11.0;;
61739;SDS011;47645;45.288;12.038;2023-02-28T21:42:03;17.0;;;10.9;;
61739;SDS011;47645;45.288;12.038;2023-02-28T21:51:57;15.6;;;9.8;;
61739;SDS011;47645;45.288;12.038;2023-02-28T22:01:57;14.4;;;9.2;;
61739;SDS011;47645;45.288;12.038;2023-02-28T22:11:58;13.5;;;7.9;;
61739;SDS011;47645;45.288;12.038;2023-02-28T22:21:59;13.6;;;8.5;;
61739;SDS011;47645;45.288;12.038;2023-02-28T22:31:58;12.6;;;8.0;;
61739;SDS011;47645;45.288;12.038;2023-02-28T22:41:59;13.3;;;8.7;;
61739;SDS011;47645;45.288;12.038;2023-02-28T22:51:59;16.7;;;10.0;;
61739;SDS011;47645;45.288;12.038;2023-02-28T23:01:58;18.8;;;11.0;;
61739;SDS011;47645;45.288;12.038;2023-02-28T23:11:58;18.3;;;10.9;;
61739;SDS011;47645;45.288;12.038;2023-02-28T23:21:59;19.5;;;10.8;;
61739;SDS011;47645;45.288;12.038;2023-02-28T23:31:59;19.2;;;12.6;;
61739;SDS011;47645;45.288;12.038;2023-02-28T23:42:01;20.9;;;12.2;;
61739;SDS011;47645;45.288;12.038;2023-02-28T23:52:00;18.9;;;10.4;;
